This is the latest recevied weather packets stored in our database for station/object KC4GS-13. If no packets are shown the sender has not sent any weather packets the latest 10 day(s).
| Time | Temp. | Humidity | Pressure | Rain* | Wind** | Luminosity | Snow |
|---|---|---|---|---|---|---|---|
| 1787429379 | 33.89° C | 58% | 1014.6 hPa | 0 mm | - | 611 W/m² | - |
| 1787429076 | 33.33° C | 59% | 1014.7 hPa | 0 mm | - | 663 W/m² | - |
| 1787428770 | 32.78° C | 62% | 1015.1 hPa | 0 mm | - | 667 W/m² | - |
| 1787428465 | 32.22° C | 63% | 1015.1 hPa | 0 mm | - | 690 W/m² | - |
| 1787428160 | 32.22° C | 63% | 1015.3 hPa | 0 mm | - | 486 W/m² | - |
| 1787427855 | 32.22° C | 63% | 1015 hPa | 0 mm | - | 100 W/m² | - |
| 1787427551 | 32.22° C | 63% | 1015.1 hPa | 0 mm | - | 176 W/m² | - |
| 1787427247 | 32.22° C | 64% | 1015.4 hPa | 0 mm | - | 135 W/m² | - |
| 1787426942 | 32.78° C | 63% | 1015.5 hPa | 0 mm | - | 142 W/m² | - |
| 1787426637 | 33.33° C | 60% | 1015.3 hPa | 0 mm | - | 154 W/m² | - |
| 1787426333 | 33.33° C | 61% | 1015.4 hPa | 0 mm | - | 717 W/m² | - |
| 1787426030 | 32.78° C | 63% | 1015.4 hPa | 0 mm | - | 737 W/m² | - |
| 1787425725 | 33.33° C | 63% | 1015.6 hPa | 0 mm | - | 160 W/m² | - |
| 1787425422 | 33.33° C | 61% | 1015.7 hPa | 0 mm | - | 744 W/m² | - |
| 1787425122 | 32.22° C | 63% | 1015.6 hPa | 0 mm | - | 238 W/m² | - |
| 1787424822 | 32.22° C | 65% | 1015.8 hPa | 0 mm | - | 751 W/m² | - |
| 1787424516 | 31.67° C | 66% | 1015.8 hPa | 0 mm | - | 156 W/m² | - |
| 1787424212 | 31.67° C | 66% | 1015.9 hPa | 0 mm | - | 107 W/m² | - |
| 1787423907 | 32.22° C | 66% | 1015.9 hPa | 0 mm | - | 124 W/m² | - |
| 1787423604 | 32.78° C | 65% | 1016.1 hPa | 0 mm | - | 182 W/m² | - |
| 1787423298 | 32.78° C | 65% | 1016.2 hPa | 0 mm | - | 633 W/m² | - |
| 1787422995 | 32.78° C | 66% | 1016 hPa | 0 mm | - | 326 W/m² | - |
| 1787422690 | 32.22° C | 66% | 1016.3 hPa | 0 mm | - | 272 W/m² | - |
| 1787422386 | 32.22° C | 66% | 1016 hPa | 0 mm | - | 153 W/m² | - |
| 1787422076 | 32.22° C | 67% | 1016.2 hPa | 0 mm | - | 729 W/m² | - |
* Rain latest hour (hover to see other rain measurements)
** Current wind speed in m/s (hover to see current wind gust speed)